Airport Name : Butts AAF

Other Name : Butts AAF

ICAO : KFCS

IATA : FCS

FAA : FCS

Latitude : 38.678394

Longitude : -104.756581

Country : United States

Local Date and Time : 15 Jul 2024 09:38

 

TAF (Terminal Aerodrome Forecast)

TAF KFCS 151300Z 1513/1619 33009KT 9999 SCT100 QNH3021INS BECMG 1519/1520 01010G20KT 9999 VCTS BKN100CB QNH3014INS TEMPO 1521/1601 VRB20G30KT 8000 -TSRA BECMG 1602/1603 33009KT 9999 NSW SCT080 BKN100 QNH3021INS BECMG 1615/1616 14010G15KT 9999 FEW080 QNH3022INS TX35/1520Z TN20/1513Z

 

METAR (METeorological Aerodrome Report)

KFCS 151455Z AUTO 35003KT 10SM CLR 29/05 A3017 RMK AO2 SLP126 T02900051 53000 $

KFCS 151355Z AUTO 36004KT 10SM CLR 25/07 A3017 RMK AO2 SLP130 T02500067 $

KFCS 151255Z AUTO 32006KT 10SM SCT200 SCT220 20/07 A3016 RMK AO2 SLP130 T01970068 $

KFCS 151155Z AUTO 34009KT 10SM CLR 19/08 A3017 RMK AO2 SLP134 T01870078 10251 20185 56011 $